sensor_id;sensor_type;location;lat;lon;timestamp;P1;durP1;ratioP1;P2;durP2;ratioP2
72688;SDS011;61053;52.166;4.506;2023-12-14T00:00:17;13.20;;;8.00;;
72688;SDS011;61053;52.166;4.506;2023-12-14T00:02:44;12.88;;;6.60;;
72688;SDS011;61053;52.166;4.506;2023-12-14T00:05:09;10.65;;;7.03;;
72688;SDS011;61053;52.166;4.506;2023-12-14T00:07:35;11.20;;;6.90;;
72688;SDS011;61053;52.166;4.506;2023-12-14T00:10:07;13.45;;;7.82;;
72688;SDS011;61053;52.166;4.506;2023-12-14T00:12:33;13.18;;;7.63;;
72688;SDS011;61053;52.166;4.506;2023-12-14T00:15:05;14.18;;;7.75;;
72688;SDS011;61053;52.166;4.506;2023-12-14T00:17:31;11.60;;;7.32;;
72688;SDS011;61053;52.166;4.506;2023-12-14T00:20:06;14.90;;;7.88;;
72688;SDS011;61053;52.166;4.506;2023-12-14T00:22:33;11.98;;;7.07;;
72688;SDS011;61053;52.166;4.506;2023-12-14T00:25:10;16.63;;;7.85;;
72688;SDS011;61053;52.166;4.506;2023-12-14T00:27:36;16.17;;;8.15;;
72688;SDS011;61053;52.166;4.506;2023-12-14T00:30:01;13.80;;;8.38;;
72688;SDS011;61053;52.166;4.506;2023-12-14T00:32:30;14.63;;;8.27;;
72688;SDS011;61053;52.166;4.506;2023-12-14T00:35:07;13.15;;;7.70;;
72688;SDS011;61053;52.166;4.506;2023-12-14T00:37:33;15.13;;;8.25;;
72688;SDS011;61053;52.166;4.506;2023-12-14T00:40:08;15.20;;;8.52;;
72688;SDS011;61053;52.166;4.506;2023-12-14T00:42:42;18.27;;;9.35;;
72688;SDS011;61053;52.166;4.506;2023-12-14T00:45:10;15.68;;;9.50;;
72688;SDS011;61053;52.166;4.506;2023-12-14T00:47:36;16.65;;;8.93;;
72688;SDS011;61053;52.166;4.506;2023-12-14T00:50:10;17.30;;;9.18;;
72688;SDS011;61053;52.166;4.506;2023-12-14T00:52:35;17.27;;;9.88;;
72688;SDS011;61053;52.166;4.506;2023-12-14T00:55:01;18.48;;;9.02;;
72688;SDS011;61053;52.166;4.506;2023-12-14T00:57:27;16.73;;;9.63;;
72688;SDS011;61053;52.166;4.506;2023-12-14T00:59:52;18.30;;;9.07;;
72688;SDS011;61053;52.166;4.506;2023-12-14T01:02:18;20.05;;;9.57;;
72688;SDS011;61053;52.166;4.506;2023-12-14T01:04:43;16.17;;;9.30;;
72688;SDS011;61053;52.166;4.506;2023-12-14T01:07:08;16.83;;;8.75;;
72688;SDS011;61053;52.166;4.506;2023-12-14T01:09:44;14.95;;;8.63;;
72688;SDS011;61053;52.166;4.506;2023-12-14T01:14:37;19.58;;;9.52;;
72688;SDS011;61053;52.166;4.506;2023-12-14T01:17:17;16.75;;;8.80;;
72688;SDS011;61053;52.166;4.506;2023-12-14T01:20:02;16.73;;;8.05;;
72688;SDS011;61053;52.166;4.506;2023-12-14T01:22:41;15.70;;;9.43;;
72688;SDS011;61053;52.166;4.506;2023-12-14T01:25:07;15.88;;;9.32;;
72688;SDS011;61053;52.166;4.506;2023-12-14T01:27:53;16.20;;;8.68;;
72688;SDS011;61053;52.166;4.506;2023-12-14T01:30:33;17.55;;;8.93;;
72688;SDS011;61053;52.166;4.506;2023-12-14T01:32:59;17.95;;;9.43;;
72688;SDS011;61053;52.166;4.506;2023-12-14T01:35:40;18.08;;;9.50;;
72688;SDS011;61053;52.166;4.506;2023-12-14T01:38:05;14.38;;;8.88;;
72688;SDS011;61053;52.166;4.506;2023-12-14T01:40:30;20.38;;;9.40;;
72688;SDS011;61053;52.166;4.506;2023-12-14T01:43:11;17.52;;;8.35;;
72688;SDS011;61053;52.166;4.506;2023-12-14T01:45:52;19.33;;;9.68;;
72688;SDS011;61053;52.166;4.506;2023-12-14T01:48:17;22.85;;;10.02;;
72688;SDS011;61053;52.166;4.506;2023-12-14T01:50:58;18.20;;;8.68;;
72688;SDS011;61053;52.166;4.506;2023-12-14T01:53:24;18.27;;;9.68;;
72688;SDS011;61053;52.166;4.506;2023-12-14T01:55:59;19.73;;;8.73;;
72688;SDS011;61053;52.166;4.506;2023-12-14T01:58:25;15.48;;;8.55;;
72688;SDS011;61053;52.166;4.506;2023-12-14T02:04:08;14.82;;;8.07;;
72688;SDS011;61053;52.166;4.506;2023-12-14T02:06:35;18.08;;;9.20;;
72688;SDS011;61053;52.166;4.506;2023-12-14T02:09:13;14.45;;;7.65;;
72688;SDS011;61053;52.166;4.506;2023-12-14T02:11:43;15.13;;;8.32;;
72688;SDS011;61053;52.166;4.506;2023-12-14T02:14:09;18.58;;;8.65;;
72688;SDS011;61053;52.166;4.506;2023-12-14T02:16:41;18.00;;;8.50;;
72688;SDS011;61053;52.166;4.506;2023-12-14T02:19:15;17.17;;;8.70;;
72688;SDS011;61053;52.166;4.506;2023-12-14T02:21:41;14.60;;;7.50;;
72688;SDS011;61053;52.166;4.506;2023-12-14T02:24:07;13.27;;;7.47;;
72688;SDS011;61053;52.166;4.506;2023-12-14T02:26:33;15.90;;;8.63;;
72688;SDS011;61053;52.166;4.506;2023-12-14T02:29:07;14.82;;;8.05;;
72688;SDS011;61053;52.166;4.506;2023-12-14T02:31:33;18.25;;;8.60;;
72688;SDS011;61053;52.166;4.506;2023-12-14T02:34:04;20.67;;;7.38;;
72688;SDS011;61053;52.166;4.506;2023-12-14T02:36:30;13.68;;;7.78;;
72688;SDS011;61053;52.166;4.506;2023-12-14T02:38:58;16.77;;;7.88;;
72688;SDS011;61053;52.166;4.506;2023-12-14T02:41:30;16.70;;;8.00;;
72688;SDS011;61053;52.166;4.506;2023-12-14T02:44:07;13.20;;;7.18;;
72688;SDS011;61053;52.166;4.506;2023-12-14T02:46:33;13.55;;;7.75;;
72688;SDS011;61053;52.166;4.506;2023-12-14T02:48:58;15.63;;;7.55;;
72688;SDS011;61053;52.166;4.506;2023-12-14T02:51:24;14.27;;;7.38;;
72688;SDS011;61053;52.166;4.506;2023-12-14T02:53:55;13.73;;;6.82;;
72688;SDS011;61053;52.166;4.506;2023-12-14T02:56:34;14.88;;;6.95;;
72688;SDS011;61053;52.166;4.506;2023-12-14T02:58:59;13.20;;;6.85;;
72688;SDS011;61053;52.166;4.506;2023-12-14T03:01:25;14.60;;;6.50;;
72688;SDS011;61053;52.166;4.506;2023-12-14T03:06:24;13.30;;;6.75;;
72688;SDS011;61053;52.166;4.506;2023-12-14T03:08:51;14.70;;;6.75;;
72688;SDS011;61053;52.166;4.506;2023-12-14T03:11:23;12.50;;;5.93;;
72688;SDS011;61053;52.166;4.506;2023-12-14T03:22:09;14.07;;;6.55;;
72688;SDS011;61053;52.166;4.506;2023-12-14T03:24:50;12.60;;;5.50;;
72688;SDS011;61053;52.166;4.506;2023-12-14T03:27:24;9.40;;;5.30;;
72688;SDS011;61053;52.166;4.506;2023-12-14T03:29:59;11.82;;;5.53;;
72688;SDS011;61053;52.166;4.506;2023-12-14T03:32:24;8.75;;;5.22;;
72688;SDS011;61053;52.166;4.506;2023-12-14T03:35:04;12.00;;;6.00;;
72688;SDS011;61053;52.166;4.506;2023-12-14T03:37:39;10.68;;;5.70;;
72688;SDS011;61053;52.166;4.506;2023-12-14T03:40:05;11.45;;;5.55;;
72688;SDS011;61053;52.166;4.506;2023-12-14T03:42:43;8.52;;;5.45;;
72688;SDS011;61053;52.166;4.506;2023-12-14T03:45:09;8.20;;;5.28;;
72688;SDS011;61053;52.166;4.506;2023-12-14T03:47:50;10.80;;;5.25;;
72688;SDS011;61053;52.166;4.506;2023-12-14T03:50:34;9.93;;;5.10;;
72688;SDS011;61053;52.166;4.506;2023-12-14T03:53:03;10.00;;;4.80;;
72688;SDS011;61053;52.166;4.506;2023-12-14T03:55:43;8.77;;;4.45;;
72688;SDS011;61053;52.166;4.506;2023-12-14T03:58:18;13.00;;;4.32;;
72688;SDS011;61053;52.166;4.506;2023-12-14T04:01:02;7.63;;;3.97;;
72688;SDS011;61053;52.166;4.506;2023-12-14T04:03:28;11.15;;;4.80;;
72688;SDS011;61053;52.166;4.506;2023-12-14T04:05:54;7.93;;;4.22;;
72688;SDS011;61053;52.166;4.506;2023-12-14T04:08:28;10.23;;;3.75;;
72688;SDS011;61053;52.166;4.506;2023-12-14T04:16:59;7.03;;;3.30;;
72688;SDS011;61053;52.166;4.506;2023-12-14T04:19:34;6.65;;;3.85;;
72688;SDS011;61053;52.166;4.506;2023-12-14T04:22:00;8.93;;;4.05;;
72688;SDS011;61053;52.166;4.506;2023-12-14T04:24:25;8.63;;;3.20;;
72688;SDS011;61053;52.166;4.506;2023-12-14T04:26:51;9.57;;;3.85;;
72688;SDS011;61053;52.166;4.506;2023-12-14T04:29:16;9.73;;;3.78;;
72688;SDS011;61053;52.166;4.506;2023-12-14T04:31:57;8.07;;;3.45;;
72688;SDS011;61053;52.166;4.506;2023-12-14T04:34:22;8.60;;;3.83;;
72688;SDS011;61053;52.166;4.506;2023-12-14T04:36:48;9.32;;;3.40;;
72688;SDS011;61053;52.166;4.506;2023-12-14T04:39:24;10.20;;;4.45;;
72688;SDS011;61053;52.166;4.506;2023-12-14T04:41:50;8.45;;;3.50;;
72688;SDS011;61053;52.166;4.506;2023-12-14T04:44:32;5.43;;;3.35;;
72688;SDS011;61053;52.166;4.506;2023-12-14T04:46:58;9.45;;;3.92;;
72688;SDS011;61053;52.166;4.506;2023-12-14T04:49:24;7.30;;;3.13;;
72688;SDS011;61053;52.166;4.506;2023-12-14T04:52:01;5.72;;;3.28;;
72688;SDS011;61053;52.166;4.506;2023-12-14T04:54:33;7.90;;;3.65;;
72688;SDS011;61053;52.166;4.506;2023-12-14T04:57:09;7.30;;;3.60;;
72688;SDS011;61053;52.166;4.506;2023-12-14T05:02:32;6.38;;;3.50;;
72688;SDS011;61053;52.166;4.506;2023-12-14T05:07:59;10.10;;;4.45;;
72688;SDS011;61053;52.166;4.506;2023-12-14T05:10:25;8.85;;;3.67;;
72688;SDS011;61053;52.166;4.506;2023-12-14T05:12:51;5.72;;;3.42;;
72688;SDS011;61053;52.166;4.506;2023-12-14T05:15:16;7.50;;;3.85;;
72688;SDS011;61053;52.166;4.506;2023-12-14T05:33:16;6.78;;;3.33;;
72688;SDS011;61053;52.166;4.506;2023-12-14T05:35:42;6.03;;;3.72;;
72688;SDS011;61053;52.166;4.506;2023-12-14T05:38:15;7.07;;;3.88;;
72688;SDS011;61053;52.166;4.506;2023-12-14T05:40:59;5.38;;;3.75;;
72688;SDS011;61053;52.166;4.506;2023-12-14T05:43:25;6.90;;;3.80;;
72688;SDS011;61053;52.166;4.506;2023-12-14T05:46:02;6.25;;;3.80;;
72688;SDS011;61053;52.166;4.506;2023-12-14T05:48:37;7.45;;;4.00;;
72688;SDS011;61053;52.166;4.506;2023-12-14T07:20:00;11.30;;;6.05;;
72688;SDS011;61053;52.166;4.506;2023-12-14T07:22:26;11.68;;;6.22;;
72688;SDS011;61053;52.166;4.506;2023-12-14T07:24:51;12.40;;;6.63;;
72688;SDS011;61053;52.166;4.506;2023-12-14T07:29:44;10.75;;;6.15;;
72688;SDS011;61053;52.166;4.506;2023-12-14T07:45:00;11.90;;;6.82;;
72688;SDS011;61053;52.166;4.506;2023-12-14T07:47:32;12.10;;;6.80;;
72688;SDS011;61053;52.166;4.506;2023-12-14T07:49:58;12.45;;;7.45;;
72688;SDS011;61053;52.166;4.506;2023-12-14T07:52:23;15.15;;;7.07;;
72688;SDS011;61053;52.166;4.506;2023-12-14T07:54:52;14.85;;;7.22;;
72688;SDS011;61053;52.166;4.506;2023-12-14T07:57:19;13.00;;;7.20;;
72688;SDS011;61053;52.166;4.506;2023-12-14T07:59:48;16.23;;;6.93;;
72688;SDS011;61053;52.166;4.506;2023-12-14T08:02:14;10.93;;;6.70;;
72688;SDS011;61053;52.166;4.506;2023-12-14T08:04:40;13.88;;;6.75;;
72688;SDS011;61053;52.166;4.506;2023-12-14T08:07:11;13.95;;;7.50;;
72688;SDS011;61053;52.166;4.506;2023-12-14T08:09:40;14.60;;;7.68;;
72688;SDS011;61053;52.166;4.506;2023-12-14T08:12:06;16.63;;;8.32;;
72688;SDS011;61053;52.166;4.506;2023-12-14T08:14:32;14.73;;;8.30;;
72688;SDS011;61053;52.166;4.506;2023-12-14T08:17:08;14.50;;;8.77;;
72688;SDS011;61053;52.166;4.506;2023-12-14T08:19:42;16.33;;;8.20;;
72688;SDS011;61053;52.166;4.506;2023-12-14T08:22:08;12.27;;;7.78;;
72688;SDS011;61053;52.166;4.506;2023-12-14T08:35:16;16.40;;;8.30;;
72688;SDS011;61053;52.166;4.506;2023-12-14T08:45:07;12.13;;;6.97;;
72688;SDS011;61053;52.166;4.506;2023-12-14T08:50:01;13.48;;;7.00;;
72688;SDS011;61053;52.166;4.506;2023-12-14T08:52:26;10.35;;;6.25;;
72688;SDS011;61053;52.166;4.506;2023-12-14T08:54:52;12.43;;;5.88;;
72688;SDS011;61053;52.166;4.506;2023-12-14T08:57:19;11.07;;;5.93;;
72688;SDS011;61053;52.166;4.506;2023-12-14T09:07:16;5.50;;;3.70;;
72688;SDS011;61053;52.166;4.506;2023-12-14T09:42:37;10.82;;;5.80;;
72688;SDS011;61053;52.166;4.506;2023-12-14T09:45:07;10.98;;;5.25;;
72688;SDS011;61053;52.166;4.506;2023-12-14T09:47:34;10.05;;;5.07;;
72688;SDS011;61053;52.166;4.506;2023-12-14T09:50:08;9.00;;;5.60;;
72688;SDS011;61053;52.166;4.506;2023-12-14T09:52:33;9.32;;;5.82;;
72688;SDS011;61053;52.166;4.506;2023-12-14T09:54:59;11.82;;;5.72;;
72688;SDS011;61053;52.166;4.506;2023-12-14T09:57:25;12.57;;;8.23;;
72688;SDS011;61053;52.166;4.506;2023-12-14T09:59:55;11.73;;;6.45;;
72688;SDS011;61053;52.166;4.506;2023-12-14T10:02:24;10.07;;;5.90;;
72688;SDS011;61053;52.166;4.506;2023-12-14T10:05:06;11.60;;;5.65;;
72688;SDS011;61053;52.166;4.506;2023-12-14T10:07:41;9.48;;;5.78;;
72688;SDS011;61053;52.166;4.506;2023-12-14T10:16:36;11.82;;;5.80;;
72688;SDS011;61053;52.166;4.506;2023-12-14T10:38:56;11.82;;;5.40;;
72688;SDS011;61053;52.166;4.506;2023-12-14T10:41:29;10.52;;;6.03;;
72688;SDS011;61053;52.166;4.506;2023-12-14T10:43:57;11.80;;;5.72;;
72688;SDS011;61053;52.166;4.506;2023-12-14T10:46:37;20.85;;;9.50;;
72688;SDS011;61053;52.166;4.506;2023-12-14T10:49:13;10.18;;;5.43;;
72688;SDS011;61053;52.166;4.506;2023-12-14T10:51:46;10.80;;;5.05;;
72688;SDS011;61053;52.166;4.506;2023-12-14T10:54:12;8.25;;;4.93;;
72688;SDS011;61053;52.166;4.506;2023-12-14T10:56:43;10.23;;;4.68;;
72688;SDS011;61053;52.166;4.506;2023-12-14T10:59:14;10.00;;;5.43;;
72688;SDS011;61053;52.166;4.506;2023-12-14T11:09:27;11.02;;;4.78;;
72688;SDS011;61053;52.166;4.506;2023-12-14T11:11:56;12.57;;;4.82;;
72688;SDS011;61053;52.166;4.506;2023-12-14T11:19:24;8.23;;;4.53;;
72688;SDS011;61053;52.166;4.506;2023-12-14T11:24:24;8.55;;;5.10;;
72688;SDS011;61053;52.166;4.506;2023-12-14T11:32:39;6.47;;;4.50;;
72688;SDS011;61053;52.166;4.506;2023-12-14T11:35:06;7.82;;;4.78;;
72688;SDS011;61053;52.166;4.506;2023-12-14T11:37:38;10.52;;;4.88;;
72688;SDS011;61053;52.166;4.506;2023-12-14T11:40:11;7.20;;;4.13;;
72688;SDS011;61053;52.166;4.506;2023-12-14T11:43:03;8.55;;;5.10;;
72688;SDS011;61053;52.166;4.506;2023-12-14T11:45:41;10.25;;;5.00;;
72688;SDS011;61053;52.166;4.506;2023-12-14T11:48:10;9.45;;;5.65;;
72688;SDS011;61053;52.166;4.506;2023-12-14T11:50:37;9.73;;;5.13;;
72688;SDS011;61053;52.166;4.506;2023-12-14T11:53:04;9.48;;;5.20;;
72688;SDS011;61053;52.166;4.506;2023-12-14T11:55:33;9.82;;;5.25;;
72688;SDS011;61053;52.166;4.506;2023-12-14T12:09:47;8.90;;;4.75;;
72688;SDS011;61053;52.166;4.506;2023-12-14T12:12:16;8.13;;;4.95;;
72688;SDS011;61053;52.166;4.506;2023-12-14T12:14:59;7.78;;;4.70;;
72688;SDS011;61053;52.166;4.506;2023-12-14T12:17:30;8.43;;;5.15;;
72688;SDS011;61053;52.166;4.506;2023-12-14T12:20:02;8.73;;;5.47;;
72688;SDS011;61053;52.166;4.506;2023-12-14T12:22:31;8.00;;;5.28;;
72688;SDS011;61053;52.166;4.506;2023-12-14T12:25:15;6.97;;;4.68;;
72688;SDS011;61053;52.166;4.506;2023-12-14T12:27:49;11.95;;;5.57;;
72688;SDS011;61053;52.166;4.506;2023-12-14T12:32:48;9.70;;;4.93;;
72688;SDS011;61053;52.166;4.506;2023-12-14T12:38:02;9.93;;;5.38;;
72688;SDS011;61053;52.166;4.506;2023-12-14T12:40:28;9.30;;;5.78;;
72688;SDS011;61053;52.166;4.506;2023-12-14T12:45:45;9.43;;;6.00;;
72688;SDS011;61053;52.166;4.506;2023-12-14T12:48:19;10.40;;;5.57;;
72688;SDS011;61053;52.166;4.506;2023-12-14T12:54:06;10.25;;;5.95;;
72688;SDS011;61053;52.166;4.506;2023-12-14T12:56:38;13.40;;;6.18;;
72688;SDS011;61053;52.166;4.506;2023-12-14T12:59:03;9.18;;;6.18;;
72688;SDS011;61053;52.166;4.506;2023-12-14T13:01:29;12.77;;;6.00;;
72688;SDS011;61053;52.166;4.506;2023-12-14T13:03:55;11.40;;;5.75;;
72688;SDS011;61053;52.166;4.506;2023-12-14T13:06:24;9.10;;;5.20;;
72688;SDS011;61053;52.166;4.506;2023-12-14T13:08:53;11.63;;;5.20;;
72688;SDS011;61053;52.166;4.506;2023-12-14T13:11:19;9.57;;;5.63;;
72688;SDS011;61053;52.166;4.506;2023-12-14T13:13:50;10.18;;;6.35;;
72688;SDS011;61053;52.166;4.506;2023-12-14T13:16:15;9.90;;;5.72;;
72688;SDS011;61053;52.166;4.506;2023-12-14T13:18:42;10.65;;;6.32;;
72688;SDS011;61053;52.166;4.506;2023-12-14T13:21:11;13.75;;;6.10;;
72688;SDS011;61053;52.166;4.506;2023-12-14T13:23:41;9.73;;;5.75;;
72688;SDS011;61053;52.166;4.506;2023-12-14T13:26:07;10.50;;;6.80;;
72688;SDS011;61053;52.166;4.506;2023-12-14T13:28:32;12.85;;;6.38;;
72688;SDS011;61053;52.166;4.506;2023-12-14T13:31:10;11.73;;;6.22;;
72688;SDS011;61053;52.166;4.506;2023-12-14T13:33:35;13.45;;;6.93;;
72688;SDS011;61053;52.166;4.506;2023-12-14T13:36:03;12.43;;;6.60;;
72688;SDS011;61053;52.166;4.506;2023-12-14T13:38:41;13.77;;;6.43;;
72688;SDS011;61053;52.166;4.506;2023-12-14T13:41:16;13.00;;;6.53;;
72688;SDS011;61053;52.166;4.506;2023-12-14T13:46:32;12.05;;;6.72;;
72688;SDS011;61053;52.166;4.506;2023-12-14T13:48:59;15.50;;;7.32;;
72688;SDS011;61053;52.166;4.506;2023-12-14T15:14:45;9.52;;;5.10;;
72688;SDS011;61053;52.166;4.506;2023-12-14T15:17:11;9.15;;;5.15;;
72688;SDS011;61053;52.166;4.506;2023-12-14T15:19:54;11.70;;;6.15;;
72688;SDS011;61053;52.166;4.506;2023-12-14T15:22:22;12.05;;;5.80;;
72688;SDS011;61053;52.166;4.506;2023-12-14T15:25:06;9.40;;;5.35;;
72688;SDS011;61053;52.166;4.506;2023-12-14T15:27:33;13.00;;;5.90;;
72688;SDS011;61053;52.166;4.506;2023-12-14T15:30:17;11.55;;;6.10;;
72688;SDS011;61053;52.166;4.506;2023-12-14T15:32:57;14.20;;;7.70;;
72688;SDS011;61053;52.166;4.506;2023-12-14T15:49:33;3.15;;;1.35;;
72688;SDS011;61053;52.166;4.506;2023-12-14T15:52:04;2.67;;;1.30;;
72688;SDS011;61053;52.166;4.506;2023-12-14T15:54:30;5.45;;;1.20;;
72688;SDS011;61053;52.166;4.506;2023-12-14T15:56:56;4.88;;;1.27;;
72688;SDS011;61053;52.166;4.506;2023-12-14T15:59:36;5.45;;;1.10;;
72688;SDS011;61053;52.166;4.506;2023-12-14T16:02:14;4.40;;;1.20;;
72688;SDS011;61053;52.166;4.506;2023-12-14T16:04:42;6.20;;;1.27;;
72688;SDS011;61053;52.166;4.506;2023-12-14T16:07:28;2.92;;;1.17;;
72688;SDS011;61053;52.166;4.506;2023-12-14T16:10:10;3.65;;;1.08;;
72688;SDS011;61053;52.166;4.506;2023-12-14T16:12:57;4.07;;;1.45;;
72688;SDS011;61053;52.166;4.506;2023-12-14T16:18:10;6.65;;;2.67;;
72688;SDS011;61053;52.166;4.506;2023-12-14T16:20:37;6.93;;;3.42;;
72688;SDS011;61053;52.166;4.506;2023-12-14T16:26:15;4.85;;;2.30;;
72688;SDS011;61053;52.166;4.506;2023-12-14T16:28:56;8.38;;;2.03;;
72688;SDS011;61053;52.166;4.506;2023-12-14T16:34:21;9.68;;;2.88;;
72688;SDS011;61053;52.166;4.506;2023-12-14T16:36:47;9.18;;;3.20;;
72688;SDS011;61053;52.166;4.506;2023-12-14T16:39:13;4.75;;;1.88;;
72688;SDS011;61053;52.166;4.506;2023-12-14T16:41:38;14.35;;;5.78;;
72688;SDS011;61053;52.166;4.506;2023-12-14T16:44:10;7.15;;;2.78;;
72688;SDS011;61053;52.166;4.506;2023-12-14T16:46:35;11.67;;;4.80;;
72688;SDS011;61053;52.166;4.506;2023-12-14T16:49:01;8.63;;;3.28;;
72688;SDS011;61053;52.166;4.506;2023-12-14T16:51:27;6.32;;;2.65;;
72688;SDS011;61053;52.166;4.506;2023-12-14T16:53:52;3.95;;;1.85;;
72688;SDS011;61053;52.166;4.506;2023-12-14T16:56:19;6.60;;;2.15;;
72688;SDS011;61053;52.166;4.506;2023-12-14T16:58:53;5.38;;;2.00;;
72688;SDS011;61053;52.166;4.506;2023-12-14T17:01:28;6.43;;;2.00;;
72688;SDS011;61053;52.166;4.506;2023-12-14T17:03:54;3.97;;;1.83;;
72688;SDS011;61053;52.166;4.506;2023-12-14T17:06:20;8.98;;;2.17;;
72688;SDS011;61053;52.166;4.506;2023-12-14T17:08:56;6.35;;;2.22;;
72688;SDS011;61053;52.166;4.506;2023-12-14T17:11:25;4.95;;;2.28;;
72688;SDS011;61053;52.166;4.506;2023-12-14T17:13:59;4.75;;;2.25;;
72688;SDS011;61053;52.166;4.506;2023-12-14T17:16:31;6.28;;;2.08;;
72688;SDS011;61053;52.166;4.506;2023-12-14T17:18:56;4.78;;;1.65;;
72688;SDS011;61053;52.166;4.506;2023-12-14T17:21:25;7.95;;;2.22;;
72688;SDS011;61053;52.166;4.506;2023-12-14T17:24:02;6.28;;;2.13;;
72688;SDS011;61053;52.166;4.506;2023-12-14T17:26:30;5.30;;;2.25;;
72688;SDS011;61053;52.166;4.506;2023-12-14T17:28:56;5.53;;;2.45;;
72688;SDS011;61053;52.166;4.506;2023-12-14T17:31:23;7.75;;;2.38;;
72688;SDS011;61053;52.166;4.506;2023-12-14T17:33:50;7.43;;;2.58;;
72688;SDS011;61053;52.166;4.506;2023-12-14T17:36:19;14.57;;;4.88;;
72688;SDS011;61053;52.166;4.506;2023-12-14T17:38:57;12.25;;;3.38;;
72688;SDS011;61053;52.166;4.506;2023-12-14T17:41:35;26.70;;;14.05;;
72688;SDS011;61053;52.166;4.506;2023-12-14T17:44:01;4.85;;;2.65;;
72688;SDS011;61053;52.166;4.506;2023-12-14T17:46:29;6.32;;;2.03;;
72688;SDS011;61053;52.166;4.506;2023-12-14T17:51:49;9.98;;;2.30;;
72688;SDS011;61053;52.166;4.506;2023-12-14T17:54:16;3.92;;;1.90;;
72688;SDS011;61053;52.166;4.506;2023-12-14T17:56:44;5.35;;;2.53;;
72688;SDS011;61053;52.166;4.506;2023-12-14T17:59:11;4.10;;;2.47;;
72688;SDS011;61053;52.166;4.506;2023-12-14T18:01:46;6.57;;;1.88;;
72688;SDS011;61053;52.166;4.506;2023-12-14T18:04:14;5.20;;;2.53;;
72688;SDS011;61053;52.166;4.506;2023-12-14T18:06:43;3.90;;;2.20;;
72688;SDS011;61053;52.166;4.506;2023-12-14T18:09:25;5.40;;;2.22;;
72688;SDS011;61053;52.166;4.506;2023-12-14T18:11:51;5.20;;;2.78;;
72688;SDS011;61053;52.166;4.506;2023-12-14T18:14:17;6.57;;;2.42;;
72688;SDS011;61053;52.166;4.506;2023-12-14T18:16:44;4.03;;;2.28;;
72688;SDS011;61053;52.166;4.506;2023-12-14T18:19:11;6.35;;;2.90;;
72688;SDS011;61053;52.166;4.506;2023-12-14T18:21:37;5.43;;;2.80;;
72688;SDS011;61053;52.166;4.506;2023-12-14T18:24:02;10.95;;;2.50;;
72688;SDS011;61053;52.166;4.506;2023-12-14T18:26:32;5.70;;;2.30;;
72688;SDS011;61053;52.166;4.506;2023-12-14T18:28:57;11.52;;;2.92;;
72688;SDS011;61053;52.166;4.506;2023-12-14T18:31:24;7.63;;;2.50;;
72688;SDS011;61053;52.166;4.506;2023-12-14T18:33:52;11.10;;;3.10;;
72688;SDS011;61053;52.166;4.506;2023-12-14T18:36:22;7.25;;;2.95;;
72688;SDS011;61053;52.166;4.506;2023-12-14T18:38:48;5.75;;;2.53;;
72688;SDS011;61053;52.166;4.506;2023-12-14T18:41:15;6.65;;;2.72;;
72688;SDS011;61053;52.166;4.506;2023-12-14T18:43:50;7.90;;;2.70;;
72688;SDS011;61053;52.166;4.506;2023-12-14T18:46:18;8.38;;;3.63;;
72688;SDS011;61053;52.166;4.506;2023-12-14T18:48:44;6.22;;;3.95;;
72688;SDS011;61053;52.166;4.506;2023-12-14T18:51:09;20.15;;;6.45;;
72688;SDS011;61053;52.166;4.506;2023-12-14T18:53:36;6.03;;;3.08;;
72688;SDS011;61053;52.166;4.506;2023-12-14T18:56:02;6.15;;;2.75;;
72688;SDS011;61053;52.166;4.506;2023-12-14T18:58:29;5.55;;;3.33;;
72688;SDS011;61053;52.166;4.506;2023-12-14T19:29:14;7.53;;;4.30;;
72688;SDS011;61053;52.166;4.506;2023-12-14T19:31:54;7.15;;;4.50;;
72688;SDS011;61053;52.166;4.506;2023-12-14T19:34:21;9.85;;;5.15;;
72688;SDS011;61053;52.166;4.506;2023-12-14T19:36:47;9.60;;;5.57;;
72688;SDS011;61053;52.166;4.506;2023-12-14T19:39:13;15.15;;;6.20;;
72688;SDS011;61053;52.166;4.506;2023-12-14T19:41:38;8.98;;;5.97;;
72688;SDS011;61053;52.166;4.506;2023-12-14T19:44:07;8.52;;;6.35;;
72688;SDS011;61053;52.166;4.506;2023-12-14T19:47:11;11.45;;;6.35;;
72688;SDS011;61053;52.166;4.506;2023-12-14T19:49:37;10.82;;;7.32;;
72688;SDS011;61053;52.166;4.506;2023-12-14T19:57:45;12.70;;;7.35;;
72688;SDS011;61053;52.166;4.506;2023-12-14T20:00:14;12.75;;;7.85;;
72688;SDS011;61053;52.166;4.506;2023-12-14T20:02:41;13.80;;;8.93;;
72688;SDS011;61053;52.166;4.506;2023-12-14T20:05:10;11.45;;;8.60;;
72688;SDS011;61053;52.166;4.506;2023-12-14T20:07:53;15.35;;;8.85;;
72688;SDS011;61053;52.166;4.506;2023-12-14T20:10:31;11.50;;;8.73;;
72688;SDS011;61053;52.166;4.506;2023-12-14T20:12:59;11.43;;;8.10;;
72688;SDS011;61053;52.166;4.506;2023-12-14T20:15:53;13.50;;;8.25;;
72688;SDS011;61053;52.166;4.506;2023-12-14T20:20:57;16.55;;;8.60;;
72688;SDS011;61053;52.166;4.506;2023-12-14T20:23:29;16.98;;;8.43;;
72688;SDS011;61053;52.166;4.506;2023-12-14T20:26:00;15.68;;;8.10;;
72688;SDS011;61053;52.166;4.506;2023-12-14T20:28:29;18.00;;;8.48;;
72688;SDS011;61053;52.166;4.506;2023-12-14T20:31:07;16.63;;;8.52;;
72688;SDS011;61053;52.166;4.506;2023-12-14T20:33:36;13.45;;;8.32;;
72688;SDS011;61053;52.166;4.506;2023-12-14T20:36:03;11.57;;;7.05;;
72688;SDS011;61053;52.166;4.506;2023-12-14T20:38:32;15.98;;;7.50;;
72688;SDS011;61053;52.166;4.506;2023-12-14T20:40:58;12.60;;;7.20;;
72688;SDS011;61053;52.166;4.506;2023-12-14T20:43:24;12.95;;;7.50;;
72688;SDS011;61053;52.166;4.506;2023-12-14T20:46:05;15.18;;;7.57;;
72688;SDS011;61053;52.166;4.506;2023-12-14T20:56:13;13.55;;;9.23;;
72688;SDS011;61053;52.166;4.506;2023-12-14T20:58:40;15.98;;;8.57;;
72688;SDS011;61053;52.166;4.506;2023-12-14T21:01:29;13.20;;;8.43;;
72688;SDS011;61053;52.166;4.506;2023-12-14T21:04:13;14.00;;;9.45;;
72688;SDS011;61053;52.166;4.506;2023-12-14T21:14:28;14.90;;;6.70;;
72688;SDS011;61053;52.166;4.506;2023-12-14T21:36:00;6.82;;;4.60;;
72688;SDS011;61053;52.166;4.506;2023-12-14T21:38:32;9.50;;;5.20;;
72688;SDS011;61053;52.166;4.506;2023-12-14T21:40:57;8.95;;;4.72;;
72688;SDS011;61053;52.166;4.506;2023-12-14T21:51:01;10.15;;;4.47;;
72688;SDS011;61053;52.166;4.506;2023-12-14T21:55:59;9.27;;;4.55;;
72688;SDS011;61053;52.166;4.506;2023-12-14T22:01:15;11.00;;;5.70;;
72688;SDS011;61053;52.166;4.506;2023-12-14T22:06:16;7.80;;;5.30;;
72688;SDS011;61053;52.166;4.506;2023-12-14T22:08:42;9.93;;;5.53;;
72688;SDS011;61053;52.166;4.506;2023-12-14T22:11:07;7.18;;;4.88;;
72688;SDS011;61053;52.166;4.506;2023-12-14T22:13:32;9.23;;;5.35;;
72688;SDS011;61053;52.166;4.506;2023-12-14T22:15:58;12.18;;;5.72;;
72688;SDS011;61053;52.166;4.506;2023-12-14T22:18:25;11.55;;;6.57;;
72688;SDS011;61053;52.166;4.506;2023-12-14T22:20:50;8.70;;;6.18;;
72688;SDS011;61053;52.166;4.506;2023-12-14T22:23:25;17.05;;;8.13;;
72688;SDS011;61053;52.166;4.506;2023-12-14T22:25:53;13.73;;;8.10;;
72688;SDS011;61053;52.166;4.506;2023-12-14T22:28:19;11.27;;;7.35;;
72688;SDS011;61053;52.166;4.506;2023-12-14T22:30:44;17.17;;;8.57;;
72688;SDS011;61053;52.166;4.506;2023-12-14T22:33:12;15.80;;;9.05;;
72688;SDS011;61053;52.166;4.506;2023-12-14T22:53:58;24.20;;;11.45;;
72688;SDS011;61053;52.166;4.506;2023-12-14T23:21:39;22.25;;;13.50;;
72688;SDS011;61053;52.166;4.506;2023-12-14T23:29:18;33.20;;;15.27;;
